Time;durP1;ratioP1;P1;durP2;ratioP2;P2;SDS_P1;SDS_P2;PMS_P1;PMS_P2;Temp;Humidity;BMP_temperature;BMP_pressure;BME280_temperature;BME280_humidity;BME280_pressure;Samples;Min_cycle;Max_cycle;Signal;HPM_P1;HPM_P2
2022/08/26 00:01:42;;;;;;;10.77;6.25;;;24.40;90.50;;;;;;5053077;28;20037;-66
2022/08/26 00:04:10;;;;;;;10.13;6.57;;;24.30;90.50;;;;;;5053322;28;20074;-66
2022/08/26 00:06:37;;;;;;;9.77;6.00;;;24.30;90.20;;;;;;5053010;28;20036;-66
2022/08/26 00:09:04;;;;;;;9.02;5.85;;;24.40;88.00;;;;;;5052963;28;20075;-65
2022/08/26 00:11:30;;;;;;;7.47;4.80;;;24.40;87.10;;;;;;5053323;28;20074;-66
2022/08/26 00:13:57;;;;;;;12.23;6.05;;;24.40;87.10;;;;;;5053197;28;20061;-65
2022/08/26 00:16:24;;;;;;;10.30;5.78;;;24.50;86.90;;;;;;5052879;28;20029;-66
2022/08/26 00:18:51;;;;;;;10.68;5.60;;;24.50;86.70;;;;;;5052870;28;20025;-66
2022/08/26 00:21:18;;;;;;;10.70;6.65;;;24.50;86.80;;;;;;5052865;28;20044;-66
2022/08/26 00:23:44;;;;;;;11.20;6.40;;;24.50;87.30;;;;;;5052762;28;20029;-65
2022/08/26 00:26:12;;;;;;;13.38;6.63;;;24.60;87.80;;;;;;5053065;28;20021;-66
2022/08/26 00:28:39;;;;;;;14.23;9.50;;;24.50;88.00;;;;;;5052687;28;20462;-66
2022/08/26 00:31:05;;;;;;;12.88;8.20;;;24.50;89.40;;;;;;5052595;28;20033;-65
2022/08/26 00:33:31;;;;;;;13.10;8.57;;;24.50;89.60;;;;;;5051556;28;20025;-66
2022/08/26 00:35:58;;;;;;;19.38;9.38;;;24.50;90.20;;;;;;5052759;28;20477;-65
2022/08/26 00:38:24;;;;;;;12.30;8.68;;;24.40;90.20;;;;;;5052714;28;20056;-66
2022/08/26 00:40:54;;;;;;;15.68;11.00;;;24.40;90.30;;;;;;5052545;28;20427;-65
2022/08/26 00:43:21;;;;;;;16.52;10.45;;;24.40;90.50;;;;;;5052571;28;20493;-66
2022/08/26 00:46:05;;;;;;;15.30;9.50;;;24.40;90.60;;;;;;5052316;28;20029;-65
2022/08/26 00:48:33;;;;;;;15.27;8.52;;;24.30;90.70;;;;;;5052503;28;20025;-66
2022/08/26 00:51:10;;;;;;;15.10;10.23;;;24.40;90.70;;;;;;5052739;28;20029;-65
2022/08/26 00:53:44;;;;;;;14.63;9.90;;;24.30;90.80;;;;;;5052380;28;20155;-65
2022/08/26 00:56:28;;;;;;;17.52;9.55;;;24.30;90.90;;;;;;5052128;28;20048;-65
2022/08/26 00:58:56;;;;;;;19.50;11.15;;;24.30;91.00;;;;;;5051965;28;20028;-65
2022/08/26 01:01:22;;;;;;;13.07;9.13;;;24.30;91.20;;;;;;5052090;28;20550;-66
2022/08/26 01:03:48;;;;;;;17.67;10.30;;;24.30;91.20;;;;;;5051752;28;20078;-65
2022/08/26 01:06:15;;;;;;;18.92;10.57;;;24.30;91.20;;;;;;5052039;28;20029;-65
2022/08/26 01:08:41;;;;;;;16.75;10.70;;;24.30;91.40;;;;;;5052415;28;20029;-66
2022/08/26 01:11:07;;;;;;;15.60;10.02;;;24.30;91.50;;;;;;5052134;28;20024;-66
2022/08/26 01:13:37;;;;;;;17.17;11.10;;;24.30;91.50;;;;;;5052573;28;20073;-66
2022/08/26 01:16:04;;;;;;;;;;;24.30;91.70;;;;;;5052387;28;20056;-66
2022/08/26 01:18:30;;;;;;;23.13;16.85;;;24.30;91.90;;;;;;5051823;28;19908;-65
2022/08/26 01:21:14;;;;;;;21.35;15.15;;;24.20;92.10;;;;;;5051725;28;20056;-65
2022/08/26 01:23:46;;;;;;;28.98;21.58;;;24.20;92.30;;;;;;5052134;28;20025;-65
2022/08/26 01:26:16;;;;;;;31.63;23.00;;;24.20;92.70;;;;;;5051497;28;20106;-66
2022/08/26 01:28:42;;;;;;;35.92;29.00;;;24.10;93.00;;;;;;5051855;28;20040;-66
2022/08/26 01:31:14;;;;;;;41.60;29.23;;;24.10;93.30;;;;;;5051416;28;20025;-66
2022/08/26 01:33:51;;;;;;;31.77;26.80;;;24.10;93.50;;;;;;5051821;28;20058;-66
2022/08/26 01:36:17;;;;;;;38.80;31.08;;;24.10;93.70;;;;;;5064351;22;20474;-72
2022/08/26 01:38:44;;;;;;;41.85;32.50;;;24.00;93.90;;;;;;5051274;28;20029;-71
2022/08/26 01:41:13;;;;;;;37.85;31.85;;;24.00;94.10;;;;;;5049991;28;20029;-72
2022/08/26 01:43:43;;;;;;;42.80;33.08;;;23.90;94.20;;;;;;5051122;28;20111;-72
2022/08/26 01:46:10;;;;;;;32.42;26.17;;;23.90;94.40;;;;;;5051086;28;20367;-71
2022/08/26 01:48:37;;;;;;;39.80;30.45;;;23.90;94.50;;;;;;5051062;28;20109;-72
2022/08/26 01:51:06;;;;;;;38.33;30.08;;;23.80;94.60;;;;;;5050928;28;20025;-72
2022/08/26 01:53:32;;;;;;;39.75;31.08;;;23.80;94.80;;;;;;5049965;28;20451;-72
2022/08/26 01:56:01;;;;;;;41.53;32.92;;;23.80;94.90;;;;;;5051099;28;20033;-72
2022/08/26 01:58:50;;;;;;;42.67;33.33;;;23.80;95.10;;;;;;5051020;28;20032;-72
2022/08/26 02:01:16;;;;;;;36.08;30.70;;;23.80;95.30;;;;;;5050815;28;20032;-72
2022/08/26 02:04:16;;;;;;;41.67;34.23;;;23.70;95.40;;;;;;5050823;28;20025;-71
2022/08/26 02:06:42;;;;;;;39.42;32.10;;;23.70;95.60;;;;;;5050852;28;20374;-72
2022/08/26 02:09:09;;;;;;;37.83;31.38;;;23.70;95.70;;;;;;5050842;28;20063;-71
2022/08/26 02:11:35;;;;;;;39.75;33.78;;;23.70;95.90;;;;;;5051026;28;20029;-71
2022/08/26 02:14:07;;;;;;;41.10;34.28;;;23.60;96.00;;;;;;5051138;28;20476;-71
2022/08/26 02:16:37;;;;;;;45.50;37.88;;;23.60;96.30;;;;;;5050652;28;20033;-71
2022/08/26 02:19:05;;;;;;;38.22;33.10;;;23.50;96.50;;;;;;5050914;28;20033;-72
2022/08/26 02:21:31;;;;;;;41.80;34.55;;;23.50;96.60;;;;;;5050830;28;20032;-72
2022/08/26 02:24:09;;;;;;;47.03;36.95;;;23.40;96.80;;;;;;5049403;28;20468;-72
2022/08/26 02:26:35;;;;;;;41.50;32.92;;;23.40;97.20;;;;;;5050758;28;20029;-72
2022/08/26 02:29:22;;;;;;;35.08;29.30;;;23.40;97.30;;;;;;5050529;28;20040;-72
2022/08/26 02:31:50;;;;;;;40.58;31.58;;;23.30;97.50;;;;;;5050715;28;20036;-72
2022/08/26 02:34:28;;;;;;;38.08;32.85;;;23.30;97.60;;;;;;5050726;28;20021;-72
2022/08/26 02:36:56;;;;;;;39.63;32.05;;;23.30;97.90;;;;;;5050581;28;20049;-72
2022/08/26 02:39:22;;;;;;;38.28;30.58;;;23.30;98.00;;;;;;5050497;28;20087;-72
2022/08/26 02:41:49;;;;;;;36.55;30.48;;;23.30;98.20;;;;;;5050547;28;20284;-72
2022/08/26 02:44:15;;;;;;;34.10;30.40;;;23.30;98.40;;;;;;5050590;28;20382;-72
2022/08/26 02:46:41;;;;;;;31.05;27.20;;;23.30;98.60;;;;;;5050531;28;20021;-72
2022/08/26 02:49:07;;;;;;;34.10;29.38;;;23.30;98.80;;;;;;5050178;28;20029;-72
2022/08/26 02:51:33;;;;;;;35.38;30.65;;;23.30;99.00;;;;;;5050360;28;20057;-72
2022/08/26 02:53:59;;;;;;;34.53;30.77;;;23.30;99.30;;;;;;5050426;28;20079;-72
2022/08/26 02:56:25;;;;;;;34.88;27.92;;;23.30;99.40;;;;;;5050433;28;20024;-72
2022/08/26 02:58:51;;;;;;;43.33;34.55;;;23.30;99.60;;;;;;5050070;28;20032;-72
2022/08/26 03:01:26;;;;;;;41.92;33.40;;;23.30;99.80;;;;;;5050145;28;20083;-72
2022/08/26 03:03:53;;;;;;;42.83;33.80;;;23.30;99.90;;;;;;5050100;28;20025;-72
2022/08/26 03:06:20;;;;;;;45.05;36.55;;;23.20;99.90;;;;;;5050307;28;20083;-72
2022/08/26 03:08:46;;;;;;;44.05;36.80;;;23.20;99.90;;;;;;5050162;28;20113;-72
2022/08/26 03:11:12;;;;;;;46.17;37.30;;;23.20;99.90;;;;;;5050058;28;20048;-72
2022/08/26 03:13:39;;;;;;;41.38;33.50;;;23.20;99.90;;;;;;5050189;28;20029;-72
2022/08/26 03:16:06;;;;;;;38.92;30.50;;;23.20;99.90;;;;;;5050107;28;20099;-72
2022/08/26 03:18:32;;;;;;;54.35;44.58;;;23.20;99.90;;;;;;5050185;28;20452;-72
2022/08/26 03:21:04;;;;;;;48.53;40.65;;;23.20;99.90;;;;;;5050025;28;20036;-72
2022/08/26 03:23:31;;;;;;;49.05;41.15;;;23.20;99.90;;;;;;5050137;28;20098;-72
2022/08/26 03:25:57;;;;;;;47.92;39.28;;;23.20;99.90;;;;;;5050087;28;20051;-72
2022/08/26 03:28:23;;;;;;;45.95;38.00;;;23.20;99.90;;;;;;5050883;28;20500;-72
2022/08/26 03:30:49;;;;;;;50.38;40.58;;;23.20;99.90;;;;;;5052231;28;20035;-72
2022/08/26 03:33:15;;;;;;;44.35;35.58;;;23.20;99.90;;;;;;5054039;28;20040;-72
2022/08/26 03:35:43;;;;;;;37.95;32.13;;;23.20;99.90;;;;;;5053545;28;20416;-72
2022/08/26 03:38:10;;;;;;;35.78;30.17;;;23.20;99.90;;;;;;5053611;28;20040;-72
2022/08/26 03:40:37;;;;;;;39.08;31.70;;;23.20;99.90;;;;;;5053230;28;20037;-72
2022/08/26 03:43:05;;;;;;;43.15;33.10;;;23.20;99.90;;;;;;5053970;28;20033;-72
2022/08/26 03:45:32;;;;;;;35.83;27.90;;;23.20;99.90;;;;;;5053458;28;20103;-72
2022/08/26 03:47:58;;;;;;;33.78;26.80;;;23.10;99.90;;;;;;5053333;28;20611;-72
2022/08/26 03:50:24;;;;;;;34.17;27.60;;;23.10;99.90;;;;;;5053032;28;20127;-72
2022/08/26 03:52:52;;;;;;;33.38;25.05;;;23.10;99.90;;;;;;5053296;28;20040;-72
2022/08/26 03:55:20;;;;;;;34.40;28.27;;;23.10;99.90;;;;;;5053407;28;20060;-72
2022/08/26 03:57:46;;;;;;;39.50;29.13;;;23.10;99.90;;;;;;5053248;28;20031;-72
2022/08/26 04:00:14;;;;;;;42.40;30.65;;;23.10;99.90;;;;;;5052913;28;20033;-72
2022/08/26 04:02:44;;;;;;;40.70;30.35;;;23.10;99.90;;;;;;5053129;28;20033;-72
2022/08/26 04:05:13;;;;;;;36.38;28.50;;;23.10;99.90;;;;;;5053423;28;20058;-72
2022/08/26 04:07:40;;;;;;;36.33;27.60;;;23.00;99.90;;;;;;5052982;28;20040;-72
2022/08/26 04:10:06;;;;;;;35.47;26.80;;;23.00;99.90;;;;;;5052805;28;20043;-72
2022/08/26 04:12:32;;;;;;;35.72;27.02;;;23.00;99.90;;;;;;5052866;28;20032;-72
2022/08/26 04:14:58;;;;;;;39.00;27.58;;;23.00;99.90;;;;;;5053109;28;20098;-72
2022/08/26 04:17:25;;;;;;;33.38;24.92;;;23.00;99.90;;;;;;5052920;28;20108;-71
2022/08/26 04:19:54;;;;;;;30.00;23.38;;;23.00;99.90;;;;;;5051288;28;20033;-71
2022/08/26 04:22:19;;;;;;;31.10;22.40;;;23.00;99.90;;;;;;5052750;28;20035;-71
2022/08/26 04:24:45;;;;;;;29.15;23.58;;;23.00;99.90;;;;;;5052704;28;20358;-71
2022/08/26 04:27:11;;;;;;;29.15;21.65;;;23.00;99.90;;;;;;5052438;28;20036;-71
2022/08/26 04:29:40;;;;;;;31.73;24.80;;;23.00;99.90;;;;;;5052536;28;20303;-71
2022/08/26 04:32:07;;;;;;;33.03;26.95;;;23.00;99.90;;;;;;5051486;28;20032;-71
2022/08/26 04:34:34;;;;;;;36.00;27.80;;;23.00;99.90;;;;;;5068098;28;20087;-71
2022/08/26 04:37:00;;;;;;;38.63;24.33;;;23.00;99.90;;;;;;5052311;28;20048;-71
2022/08/26 04:39:27;;;;;;;32.33;24.95;;;22.90;99.90;;;;;;5050559;28;20155;-71
2022/08/26 04:41:53;;;;;;;32.20;22.73;;;22.90;99.90;;;;;;5052211;28;20060;-71
2022/08/26 04:44:23;;;;;;;28.50;21.65;;;22.90;99.90;;;;;;5052440;28;20052;-71
2022/08/26 04:46:50;;;;;;;31.90;23.40;;;22.90;99.90;;;;;;5052119;28;20029;-71
2022/08/26 04:49:16;;;;;;;30.25;22.38;;;22.90;99.90;;;;;;5052186;28;20470;-71
2022/08/26 04:51:42;;;;;;;33.47;20.85;;;22.90;99.90;;;;;;5052207;28;20036;-71
2022/08/26 04:54:08;;;;;;;29.02;21.98;;;22.90;99.90;;;;;;5051999;28;20025;-71
2022/08/26 04:56:36;;;;;;;29.95;21.83;;;22.90;99.90;;;;;;5052421;28;20036;-71
2022/08/26 04:59:06;;;;;;;27.35;20.10;;;22.90;99.90;;;;;;5052077;28;20033;-71
2022/08/26 05:01:33;;;;;;;29.05;22.30;;;22.80;99.90;;;;;;5051891;28;20055;-71
2022/08/26 05:04:01;;;;;;;27.77;21.25;;;22.80;99.90;;;;;;5051919;28;20580;-71
2022/08/26 05:06:27;;;;;;;30.00;22.33;;;22.80;99.90;;;;;;5050693;28;20063;-71
2022/08/26 05:08:53;;;;;;;31.08;20.10;;;22.80;99.90;;;;;;5051865;28;20033;-71
2022/08/26 05:11:20;;;;;;;29.63;22.98;;;22.80;99.90;;;;;;5051677;28;20542;-71
2022/08/26 05:13:46;;;;;;;27.73;19.85;;;22.90;99.90;;;;;;5051918;28;20474;-71
2022/08/26 05:16:14;;;;;;;30.88;23.10;;;22.80;99.90;;;;;;5051680;28;20032;-71
2022/08/26 05:18:42;;;;;;;31.35;21.38;;;22.80;99.90;;;;;;5051654;28;20052;-71
2022/08/26 05:21:19;;;;;;;28.88;21.65;;;22.80;99.90;;;;;;5051493;28;20108;-71
2022/08/26 05:23:46;;;;;;;29.17;21.60;;;22.80;99.90;;;;;;5051680;28;20436;-72
2022/08/26 05:26:13;;;;;;;35.60;24.42;;;22.80;99.90;;;;;;5051491;28;20247;-72
2022/08/26 05:28:39;;;;;;;33.17;26.17;;;22.80;99.90;;;;;;5051397;28;20469;-72
2022/08/26 05:31:27;;;;;;;32.17;24.02;;;22.80;99.90;;;;;;5051366;28;20031;-72
2022/08/26 05:33:56;;;;;;;34.67;24.65;;;22.90;99.90;;;;;;5051658;28;20401;-72
2022/08/26 05:36:23;;;;;;;35.13;24.05;;;22.80;99.90;;;;;;5051200;28;20048;-72
2022/08/26 05:38:49;;;;;;;29.52;22.13;;;22.80;99.90;;;;;;5051231;28;20060;-72
2022/08/26 05:41:19;;;;;;;33.00;23.88;;;22.80;99.90;;;;;;5050030;28;20055;-72
2022/08/26 05:43:46;;;;;;;28.63;21.92;;;22.80;99.90;;;;;;5051288;28;20029;-72
2022/08/26 05:46:12;;;;;;;35.47;24.90;;;22.80;99.90;;;;;;5050997;28;20025;-72
2022/08/26 05:48:39;;;;;;;35.05;23.77;;;22.80;99.90;;;;;;5051048;28;20052;-72
2022/08/26 05:51:07;;;;;;;31.63;22.25;;;22.80;99.90;;;;;;5050259;28;20032;-72
2022/08/26 05:53:33;;;;;;;31.02;23.35;;;22.80;99.90;;;;;;5051271;28;20033;-72
2022/08/26 05:55:59;;;;;;;31.38;22.23;;;22.80;99.90;;;;;;5051082;28;20032;-72
2022/08/26 05:58:26;;;;;;;29.10;22.73;;;22.80;99.90;;;;;;5049876;28;20021;-72
2022/08/26 06:01:17;;;;;;;29.98;22.98;;;22.80;99.90;;;;;;5049870;28;20033;-72
2022/08/26 06:03:46;;;;;;;23.50;19.05;;;22.90;99.90;;;;;;5050998;28;20068;-72
2022/08/26 06:06:18;;;;;;;25.90;18.88;;;22.80;99.90;;;;;;5050124;28;20393;-72
2022/08/26 06:08:45;;;;;;;26.70;19.38;;;22.80;99.90;;;;;;5051096;28;20021;-72
2022/08/26 06:11:13;;;;;;;25.67;18.58;;;22.80;99.90;;;;;;5051314;28;20493;-72
2022/08/26 06:13:39;;;;;;;;;;;22.80;99.90;;;;;;5052948;28;20040;-72
2022/08/26 06:16:09;;;;;;;23.65;16.83;;;22.80;99.90;;;;;;5051812;28;20300;-72
2022/08/26 06:18:38;;;;;;;24.27;15.60;;;22.80;99.90;;;;;;5052806;28;20029;-71
2022/08/26 06:21:25;;;;;;;26.42;14.60;;;22.80;99.90;;;;;;5067375;28;20104;-71
2022/08/26 06:26:40;;;;;;;25.67;16.83;;;22.80;99.90;;;;;;5050667;28;20029;-71
2022/08/26 06:29:06;;;;;;;30.85;17.90;;;22.80;99.90;;;;;;5050563;28;20044;-72
2022/08/26 06:31:34;;;;;;;24.27;16.80;;;22.70;99.90;;;;;;5050519;28;20398;-71
2022/08/26 06:34:02;;;;;;;28.10;19.00;;;22.80;99.90;;;;;;5050624;28;20108;-71
2022/08/26 06:36:30;;;;;;;25.13;17.77;;;22.80;99.90;;;;;;5049245;28;20037;-72
2022/08/26 06:39:02;;;;;;;24.75;15.70;;;22.70;99.90;;;;;;5050692;28;20547;-72
2022/08/26 06:41:30;;;;;;;26.25;16.08;;;22.80;99.90;;;;;;5050526;28;20118;-72
2022/08/26 06:43:56;;;;;;;21.35;15.50;;;22.80;99.90;;;;;;5050434;28;20091;-72
2022/08/26 06:46:23;;;;;;;24.75;15.45;;;22.70;99.90;;;;;;5050381;28;20159;-72
2022/08/26 06:48:49;;;;;;;19.70;15.40;;;22.80;99.90;;;;;;5050830;28;20584;-72
2022/08/26 06:51:18;;;;;;;22.52;14.55;;;22.80;99.90;;;;;;5049160;28;20108;-72
2022/08/26 06:53:46;;;;;;;21.23;13.70;;;22.80;99.90;;;;;;5050493;28;20040;-72
2022/08/26 06:56:14;;;;;;;29.83;19.63;;;22.90;99.90;;;;;;5050618;28;20033;-72
2022/08/26 06:58:40;;;;;;;23.63;18.30;;;22.90;99.90;;;;;;5050348;28;20025;-72
2022/08/26 07:01:43;;;;;;;28.73;20.05;;;22.80;99.90;;;;;;5050648;28;20048;-72
2022/08/26 07:04:11;;;;;;;31.27;20.48;;;22.80;99.90;;;;;;5051594;28;20071;-72
2022/08/26 07:06:40;;;;;;;29.23;20.45;;;22.90;99.90;;;;;;5053632;28;20044;-72
2022/08/26 07:09:07;;;;;;;26.80;19.33;;;22.90;99.90;;;;;;5052745;28;20033;-72
2022/08/26 07:11:34;;;;;;;24.77;18.80;;;22.90;99.90;;;;;;5053996;28;20751;-72
2022/08/26 07:14:00;;;;;;;19.73;16.92;;;22.90;99.90;;;;;;5053161;28;20100;-72
2022/08/26 07:16:27;;;;;;;27.23;16.90;;;22.90;99.90;;;;;;5054028;28;20120;-72
2022/08/26 07:18:54;;;;;;;25.20;20.08;;;22.90;99.90;;;;;;5053841;28;20405;-72
2022/08/26 07:21:21;;;;;;;24.35;18.40;;;22.90;99.90;;;;;;5053717;28;20025;-72
2022/08/26 07:23:48;;;;;;;21.23;16.00;;;22.90;99.90;;;;;;5054073;28;20370;-72
2022/08/26 07:26:20;;;;;;;18.92;15.13;;;22.90;99.90;;;;;;5053667;28;20067;-72
2022/08/26 07:28:49;;;;;;;22.80;16.15;;;22.90;99.90;;;;;;5054201;28;20104;-72
2022/08/26 07:31:16;;;;;;;;;;;22.90;99.90;;;;;;5053888;28;20048;-72
2022/08/26 07:33:43;;;;;;;26.08;18.30;;;22.90;99.90;;;;;;5053718;28;19909;-72
2022/08/26 07:38:51;;;;;;;20.30;16.10;;;22.90;99.90;;;;;;5031517;28;20290;-71
2022/08/26 07:41:21;;;;;;;19.83;15.18;;;22.80;99.90;;;;;;5033546;28;20545;-71
2022/08/26 07:43:47;;;;;;;18.85;13.30;;;22.90;99.90;;;;;;5033711;28;20030;-71
2022/08/26 07:46:17;;;;;;;27.77;12.95;;;22.90;99.90;;;;;;5033457;28;20032;-71
2022/08/26 07:48:44;;;;;;;17.10;12.73;;;22.90;99.90;;;;;;5033410;28;20536;-71
2022/08/26 07:51:10;;;;;;;20.52;12.95;;;22.90;99.90;;;;;;5033203;28;20052;-71
2022/08/26 07:53:36;;;;;;;20.77;12.90;;;22.90;99.90;;;;;;5033720;28;20087;-71
2022/08/26 07:56:03;;;;;;;22.58;12.93;;;22.80;99.90;;;;;;5033579;28;20026;-71
2022/08/26 07:58:29;;;;;;;18.38;10.25;;;22.80;99.90;;;;;;5031903;28;20061;-71
2022/08/26 08:00:55;;;;;;;20.67;11.07;;;22.80;99.90;;;;;;5033145;28;20056;-71
2022/08/26 08:03:21;;;;;;;17.35;10.55;;;22.80;99.90;;;;;;5031948;28;20438;-71
2022/08/26 08:05:47;;;;;;;19.35;10.63;;;22.80;99.90;;;;;;5033041;28;20156;-71
2022/08/26 08:08:14;;;;;;;13.40;10.20;;;22.90;99.90;;;;;;5033166;28;20025;-71
2022/08/26 08:10:40;;;;;;;14.57;9.93;;;22.90;99.90;;;;;;5032877;28;20052;-71
2022/08/26 08:13:07;;;;;;;18.48;11.25;;;22.90;99.90;;;;;;5032370;28;20427;-71
2022/08/26 08:15:34;;;;;;;18.08;10.45;;;22.90;99.80;;;;;;5032934;28;20056;-71
2022/08/26 08:18:00;;;;;;;14.88;8.70;;;22.90;99.70;;;;;;5032857;28;20553;-71
2022/08/26 08:20:27;;;;;;;12.55;8.18;;;22.90;99.70;;;;;;5032499;28;20497;-71
2022/08/26 08:22:54;;;;;;;13.02;8.27;;;22.90;99.60;;;;;;5031935;28;20045;-71
2022/08/26 08:25:21;;;;;;;13.75;7.00;;;22.90;99.60;;;;;;5032838;28;20079;-71
2022/08/26 08:27:49;;;;;;;12.48;7.03;;;22.90;99.70;;;;;;5031558;28;20026;-71
2022/08/26 08:30:18;;;;;;;12.82;6.80;;;22.90;99.70;;;;;;5032490;28;20474;-71
2022/08/26 08:32:44;;;;;;;13.68;6.95;;;22.90;99.80;;;;;;5032643;28;20080;-71
2022/08/26 08:35:14;;;;;;;14.13;6.15;;;22.80;99.80;;;;;;5032465;28;20504;-71
2022/08/26 08:37:40;;;;;;;11.13;6.20;;;22.90;99.90;;;;;;5030989;28;20033;-71
2022/08/26 08:40:08;;;;;;;10.32;5.68;;;22.80;99.90;;;;;;5032319;28;20025;-71
2022/08/26 08:42:44;;;;;;;11.70;5.63;;;22.90;99.90;;;;;;5032379;28;20471;-71
2022/08/26 08:45:33;;;;;;;13.80;5.68;;;22.80;99.90;;;;;;5032578;28;20030;-71
2022/08/26 08:48:21;;;;;;;10.48;5.65;;;22.90;99.90;;;;;;5032407;28;20030;-71
2022/08/26 08:51:22;;;;;;;14.63;5.57;;;22.80;99.80;;;;;;5032096;28;20108;-71
2022/08/26 08:53:50;;;;;;;17.55;5.63;;;22.90;99.80;;;;;;5032182;28;20037;-71
2022/08/26 08:56:16;;;;;;;;;;;22.90;99.70;;;;;;5032563;28;20037;-71
2022/08/26 08:58:51;;;;;;;10.68;5.32;;;22.90;99.70;;;;;;5031971;28;19913;-71
2022/08/26 09:01:55;;;;;;;9.27;4.70;;;22.80;99.80;;;;;;5031935;28;20029;-71
2022/08/26 09:04:53;;;;;;;12.82;4.93;;;22.90;99.80;;;;;;5030248;28;20057;-71
2022/08/26 09:07:21;;;;;;;;;;;22.90;99.60;;;;;;5031104;28;20482;-71
2022/08/26 09:09:58;;;;;;;15.60;5.40;;;22.90;99.40;;;;;;5031837;28;19913;-71
2022/08/26 09:12:28;;;;;;;13.15;6.03;;;22.90;99.40;;;;;;5030435;28;20120;-71
2022/08/26 09:15:10;;;;;;;11.98;6.00;;;22.90;99.30;;;;;;5030607;28;20281;-71
2022/08/26 09:18:08;;;;;;;9.13;5.05;;;22.90;99.40;;;;;;5031689;28;20433;-71
2022/08/26 09:20:46;;;;;;;11.73;4.40;;;22.90;99.40;;;;;;5028361;28;20069;-71
2022/08/26 09:23:13;;;;;;;14.00;4.00;;;22.90;99.40;;;;;;5031632;28;20453;-71
2022/08/26 09:25:54;;;;;;;12.55;4.07;;;22.90;99.30;;;;;;5031490;28;20276;-71
2022/08/26 09:28:23;;;;;;;14.18;6.65;;;22.90;99.30;;;;;;5031606;28;20025;-71
2022/08/26 09:31:01;;;;;;;13.95;9.15;;;22.90;99.40;;;;;;5031396;28;20033;-71
2022/08/26 09:33:30;;;;;;;22.30;9.50;;;23.00;99.50;;;;;;5031326;28;20438;-71
2022/08/26 09:36:21;;;;;;;25.13;15.75;;;22.90;99.30;;;;;;5031460;28;20033;-71
2022/08/26 09:38:49;;;;;;;17.77;12.43;;;22.90;99.20;;;;;;5011707;28;20052;-71
2022/08/26 09:41:42;;;;;;;25.27;12.70;;;23.00;99.30;;;;;;5031397;28;20120;-71
2022/08/26 09:44:18;;;;;;;18.48;12.80;;;23.00;99.20;;;;;;5029357;28;20041;-71
2022/08/26 09:47:05;;;;;;;25.58;14.82;;;23.00;99.20;;;;;;5029886;28;20072;-71
2022/08/26 09:49:36;;;;;;;20.88;15.48;;;23.00;99.10;;;;;;5030928;28;20025;-71
2022/08/26 09:52:23;;;;;;;18.30;14.25;;;23.00;99.00;;;;;;5031139;28;20458;-71
2022/08/26 09:54:59;;;;;;;;;;;23.00;99.10;;;;;;5031847;28;20057;-72
2022/08/26 09:57:29;;;;;;;18.83;8.77;;;23.00;99.00;;;;;;5031045;28;19909;-72
2022/08/26 09:59:55;;;;;;;15.32;9.15;;;23.00;99.10;;;;;;5030886;28;20026;-72
2022/08/26 10:02:33;;;;;;;20.55;11.57;;;23.00;99.00;;;;;;5030902;28;20371;-72
2022/08/26 10:05:05;;;;;;;21.25;9.70;;;23.10;98.70;;;;;;5029844;28;20113;-72
2022/08/26 10:07:50;;;;;;;26.23;18.55;;;23.10;98.80;;;;;;5031309;28;20046;-72
2022/08/26 10:10:28;;;;;;;24.80;17.08;;;23.20;98.90;;;;;;5031090;28;20052;-71
2022/08/26 10:13:16;;;;;;;23.80;17.83;;;23.10;98.90;;;;;;5030930;28;20025;-72
2022/08/26 10:15:55;;;;;;;24.40;15.83;;;23.10;99.00;;;;;;5029583;28;20072;-72
2022/08/26 10:18:31;;;;;;;14.45;8.50;;;23.10;98.90;;;;;;5030917;28;20033;-72
2022/08/26 10:21:01;;;;;;;11.23;5.82;;;23.00;98.80;;;;;;5029446;28;20065;-72
2022/08/26 10:23:31;;;;;;;16.83;8.73;;;23.10;98.60;;;;;;5030957;28;20036;-72
2022/08/26 10:26:08;;;;;;;18.55;9.27;;;23.00;98.80;;;;;;5030894;28;20260;-71
2022/08/26 10:28:45;;;;;;;19.90;8.93;;;23.10;98.70;;;;;;5030559;28;20033;-71
2022/08/26 10:31:43;;;;;;;20.42;9.75;;;23.00;98.80;;;;;;5031102;28;20022;-72
2022/08/26 10:34:10;;;;;;;18.13;8.80;;;23.00;98.90;;;;;;5009992;28;20049;-72
2022/08/26 10:37:00;;;;;;;14.80;7.35;;;23.10;98.80;;;;;;5030130;28;20064;-71
2022/08/26 10:39:42;;;;;;;15.48;7.13;;;23.10;98.80;;;;;;5033189;28;20116;-71
2022/08/26 10:42:22;;;;;;;18.63;10.27;;;23.10;98.60;;;;;;5033339;28;20128;-72
2022/08/26 10:44:52;;;;;;;16.13;9.13;;;23.10;98.50;;;;;;5034639;28;20028;-71
2022/08/26 10:47:23;;;;;;;12.18;6.68;;;23.10;98.50;;;;;;5034506;28;20018;-71
2022/08/26 10:49:51;;;;;;;10.88;5.30;;;23.10;98.50;;;;;;5034386;28;20021;-71
2022/08/26 10:52:27;;;;;;;17.50;8.05;;;23.20;98.50;;;;;;5034628;28;20080;-71
2022/08/26 10:55:15;;;;;;;16.27;9.38;;;23.20;98.30;;;;;;5033453;28;20147;-71
2022/08/26 10:57:50;;;;;;;13.77;8.18;;;23.30;98.30;;;;;;5033191;28;20029;-72
2022/08/26 11:03:30;;;;;;;15.57;9.45;;;23.30;98.00;;;;;;5033545;28;20065;-71
2022/08/26 11:06:18;;;;;;;13.25;7.45;;;23.30;97.90;;;;;;5035145;28;20044;-72
2022/08/26 11:08:47;;;;;;;9.85;5.70;;;23.30;97.80;;;;;;5034392;28;20032;-71
2022/08/26 11:11:38;;;;;;;11.82;6.03;;;23.40;97.70;;;;;;5035565;28;20021;-72
2022/08/26 11:14:06;;;;;;;14.68;5.35;;;23.40;97.50;;;;;;5034226;28;20039;-71
2022/08/26 11:16:44;;;;;;;12.00;6.05;;;23.40;97.50;;;;;;5016221;28;20025;-71
2022/08/26 11:19:38;;;;;;;12.60;5.60;;;23.50;97.30;;;;;;5033947;28;20047;-72
2022/08/26 11:22:31;;;;;;;11.15;4.97;;;23.50;97.40;;;;;;5033946;28;20752;-71
2022/08/26 11:24:57;;;;;;;15.25;5.13;;;23.50;97.40;;;;;;5033902;28;20029;-72
2022/08/26 11:27:35;;;;;;;11.63;3.83;;;23.50;97.50;;;;;;5033898;28;20040;-71
2022/08/26 11:30:16;;;;;;;9.38;3.55;;;23.50;97.40;;;;;;5033662;28;20021;-71
2022/08/26 11:32:42;;;;;;;10.43;3.70;;;23.50;97.20;;;;;;5033845;28;20120;-71
2022/08/26 11:35:12;;;;;;;11.57;4.47;;;23.50;97.20;;;;;;5033819;28;20395;-72
2022/08/26 11:37:44;;;;;;;15.70;4.82;;;23.50;97.30;;;;;;5033768;28;20094;-72
2022/08/26 11:40:14;;;;;;;13.60;6.35;;;23.50;97.20;;;;;;5032130;28;20034;-71
2022/08/26 11:42:53;;;;;;;12.52;5.50;;;23.50;97.10;;;;;;5032171;28;20069;-71
2022/08/26 11:45:31;;;;;;;13.55;5.20;;;23.50;97.10;;;;;;5032273;28;20030;-71
2022/08/26 11:47:57;;;;;;;11.88;6.25;;;23.50;97.10;;;;;;5032505;28;20091;-71
2022/08/26 11:50:26;;;;;;;12.40;6.25;;;23.50;97.30;;;;;;5033111;28;20033;-71
2022/08/26 11:53:00;;;;;;;12.60;4.97;;;23.50;97.10;;;;;;5033407;28;20079;-72
2022/08/26 11:55:28;;;;;;;12.48;5.70;;;23.50;97.10;;;;;;5033416;28;20034;-72
2022/08/26 11:57:59;;;;;;;13.13;6.13;;;23.50;97.10;;;;;;5031995;28;20036;-71
2022/08/26 12:00:33;;;;;;;11.93;6.97;;;23.50;96.90;;;;;;5033047;28;20272;-71
2022/08/26 12:03:03;;;;;;;10.23;4.95;;;23.50;96.80;;;;;;5031999;28;20036;-71
2022/08/26 12:05:34;;;;;;;11.68;6.32;;;23.60;97.10;;;;;;5033193;28;20102;-71
2022/08/26 12:08:09;;;;;;;12.80;5.65;;;23.60;96.80;;;;;;5033057;28;20145;-71
2022/08/26 12:10:36;;;;;;;10.85;5.13;;;23.60;96.70;;;;;;5032868;28;20025;-71
2022/08/26 12:13:05;;;;;;;8.73;5.13;;;23.70;96.40;;;;;;5033033;28;20064;-71
2022/08/26 12:15:33;;;;;;;13.27;4.95;;;23.70;96.30;;;;;;5032953;28;20025;-71
2022/08/26 12:18:17;;;;;;;10.27;5.70;;;23.70;96.30;;;;;;5032774;28;20486;-71
2022/08/26 12:20:52;;;;;;;10.88;6.97;;;23.80;96.20;;;;;;5032794;28;20037;-71
2022/08/26 12:23:40;;;;;;;11.13;6.10;;;23.80;96.20;;;;;;5032797;28;20030;-71
2022/08/26 12:26:23;;;;;;;12.52;5.07;;;23.80;96.10;;;;;;5032580;28;20030;-71
2022/08/26 12:29:01;;;;;;;9.75;4.40;;;23.70;96.10;;;;;;5032479;28;20041;-71
2022/08/26 12:31:31;;;;;;;11.55;4.45;;;23.70;96.00;;;;;;5032755;28;20112;-71
2022/08/26 12:34:00;;;;;;;9.18;4.28;;;23.70;96.10;;;;;;5032728;28;20502;-71
2022/08/26 12:36:38;;;;;;;8.05;4.55;;;23.60;96.00;;;;;;5031153;28;20034;-71
2022/08/26 12:39:11;;;;;;;7.57;4.05;;;23.60;96.00;;;;;;5032428;28;20112;-71
2022/08/26 12:41:46;;;;;;;8.75;4.38;;;23.60;96.40;;;;;;5032337;28;20029;-71
2022/08/26 12:44:44;;;;;;;8.15;4.57;;;23.70;96.00;;;;;;5032359;28;20078;-71
2022/08/26 12:47:22;;;;;;;5.57;3.78;;;23.70;95.90;;;;;;5032205;28;20049;-71
2022/08/26 12:49:57;;;;;;;6.95;3.88;;;23.70;96.00;;;;;;5032377;28;20505;-71
2022/08/26 12:52:29;;;;;;;9.75;4.32;;;23.70;96.10;;;;;;5032370;28;20657;-71
2022/08/26 12:55:05;;;;;;;10.75;4.32;;;23.70;96.00;;;;;;5031024;28;20105;-71
2022/08/26 12:57:34;;;;;;;8.30;3.60;;;23.70;96.00;;;;;;5032110;28;20028;-71
2022/08/26 13:00:30;;;;;;;8.20;3.15;;;23.70;95.90;;;;;;5031632;28;20029;-71
2022/08/26 13:02:58;;;;;;;11.18;3.45;;;23.70;96.00;;;;;;5032054;28;20064;-71